Time,TemperatureF,DewpointF,PressureIn,WindDirection,WindDirectionDegrees,WindSpeedMPH,WindSpeedGustMPH,Humidity,HourlyPrecipIn,Conditions,Clouds,dailyrainin,SoftwareType,DateUTC
2013-03-04 00:04:00,25.7,22.9,29.82,ESE,118,13.0,16.0,89,0.00,,,0.00,Wunderground v.1.15,2013-03-04 06:04:00,
2013-03-04 00:09:00,25.7,22.9,29.82,ESE,121,11.0,16.0,89,0.00,,,0.00,Wunderground v.1.15,2013-03-04 06:09:00,
2013-03-04 00:16:00,25.7,22.9,29.82,ESE,121,16.0,16.0,89,0.00,,,0.00,Wunderground v.1.15,2013-03-04 06:16:00,
2013-03-04 00:21:00,25.7,22.9,29.81,ESE,119,17.0,17.0,89,0.00,,,0.00,Wunderground v.1.15,2013-03-04 06:21:00,
2013-03-04 00:26:00,25.6,22.8,29.81,ESE,118,10.0,17.0,89,0.00,,,0.00,Wunderground v.1.15,2013-03-04 06:26:00,
2013-03-04 00:32:00,25.5,22.7,29.81,SE,130,12.0,12.0,89,0.00,,,0.00,Wunderground v.1.15,2013-03-04 06:32:00,
2013-03-04 00:38:00,25.4,22.6,29.80,SE,136,10.0,14.0,89,0.00,,,0.00,Wunderground v.1.15,2013-03-04 06:38:00,
2013-03-04 00:43:00,25.2,22.4,29.80,ESE,123,10.0,16.0,89,0.00,,,0.00,Wunderground v.1.15,2013-03-04 06:43:00,
2013-03-04 00:48:00,25.2,22.4,29.81,SE,129,12.0,17.0,89,0.00,,,0.00,Wunderground v.1.15,2013-03-04 06:48:00,
2013-03-04 00:53:00,25.2,22.4,29.81,SE,135,11.0,16.0,89,0.00,,,0.00,Wunderground v.1.15,2013-03-04 06:53:00,
2013-03-04 00:59:00,25.2,22.4,29.81,SE,130,15.0,17.0,89,0.00,,,0.00,Wunderground v.1.15,2013-03-04 06:59:00,
2013-03-04 01:04:00,25.3,22.5,29.82,SE,140,9.0,13.0,89,0.00,,,0.00,Wunderground v.1.15,2013-03-04 07:04:00,
2013-03-04 01:11:00,25.3,22.5,29.82,SE,143,15.0,15.0,89,0.00,,,0.00,Wunderground v.1.15,2013-03-04 07:11:00,
2013-03-04 01:17:00,25.2,22.4,29.83,SE,139,9.0,18.0,89,0.00,,,0.00,Wunderground v.1.15,2013-03-04 07:17:00,
2013-03-04 01:22:00,25.1,22.3,29.82,SE,137,9.0,10.0,89,0.00,,,0.00,Wunderground v.1.15,2013-03-04 07:22:00,
2013-03-04 01:27:00,25.1,22.3,29.82,ESE,118,9.0,10.0,89,0.00,,,0.00,Wunderground v.1.15,2013-03-04 07:27:00,
2013-03-04 01:33:00,25.1,22.3,29.82,ESE,122,11.0,12.0,89,0.00,,,0.00,Wunderground v.1.15,2013-03-04 07:33:00,
2013-03-04 01:39:00,25.1,22.3,29.81,SE,128,10.0,14.0,89,0.00,,,0.00,Wunderground v.1.15,2013-03-04 07:39:00,
2013-03-04 01:46:00,25.1,22.3,29.80,SE,124,11.0,12.0,89,0.00,,,0.00,Wunderground v.1.15,2013-03-04 07:46:00,
2013-03-04 01:52:00,25.0,22.2,29.79,SE,126,15.0,18.0,89,0.00,,,0.00,Wunderground v.1.15,2013-03-04 07:52:00,
2013-03-04 01:57:00,25.0,22.2,29.79,ESE,120,16.0,18.0,89,0.00,,,0.00,Wunderground v.1.15,2013-03-04 07:57:00,
2013-03-04 02:02:00,25.0,22.2,29.80,SE,131,8.0,13.0,89,0.00,,,0.00,Wunderground v.1.15,2013-03-04 08:02:00,
2013-03-04 02:07:00,25.0,22.2,29.80,SE,133,8.0,16.0,89,0.00,,,0.00,Wunderground v.1.15,2013-03-04 08:07:00,
2013-03-04 02:12:00,25.0,22.2,29.79,ESE,123,13.0,13.0,89,0.00,,,0.00,Wunderground v.1.15,2013-03-04 08:12:00,
2013-03-04 02:17:00,25.0,22.2,29.79,SE,131,17.0,17.0,89,0.00,,,0.00,Wunderground v.1.15,2013-03-04 08:17:00,
2013-03-04 02:22:00,25.1,22.3,29.79,ESE,122,18.0,18.0,89,0.00,,,0.00,Wunderground v.1.15,2013-03-04 08:22:00,
2013-03-04 02:27:00,25.1,22.3,29.79,ESE,113,13.0,18.0,89,0.00,,,0.00,Wunderground v.1.15,2013-03-04 08:27:00,
2013-03-04 02:32:00,25.1,22.3,29.79,SE,131,14.0,18.0,89,0.00,,,0.00,Wunderground v.1.15,2013-03-04 08:32:00,
2013-03-04 02:37:00,25.2,22.4,29.79,ESE,122,7.0,18.0,89,0.00,,,0.00,Wunderground v.1.15,2013-03-04 08:37:00,
2013-03-04 02:42:00,25.2,22.4,29.79,SE,126,11.0,15.0,89,0.00,,,0.00,Wunderground v.1.15,2013-03-04 08:42:00,
2013-03-04 02:47:00,25.2,22.4,29.79,SE,133,7.0,15.0,89,0.00,,,0.00,Wunderground v.1.15,2013-03-04 08:47:00,
2013-03-04 02:52:00,25.2,22.4,29.79,SE,127,10.0,13.0,89,0.00,,,0.00,Wunderground v.1.15,2013-03-04 08:52:00,
2013-03-04 02:57:00,25.2,22.4,29.78,ESE,117,11.0,15.0,89,0.00,,,0.00,Wunderground v.1.15,2013-03-04 08:57:00,
2013-03-04 03:02:00,25.2,22.4,29.78,ESE,114,8.0,15.0,89,0.00,,,0.00,Wunderground v.1.15,2013-03-04 09:02:00,
2013-03-04 03:07:00,25.1,22.3,29.78,SE,128,14.0,15.0,89,0.00,,,0.00,Wunderground v.1.15,2013-03-04 09:07:00,
2013-03-04 03:12:00,25.1,22.3,29.78,SE,130,15.0,15.0,89,0.00,,,0.00,Wunderground v.1.15,2013-03-04 09:12:00,
2013-03-04 03:17:00,25.1,22.3,29.77,SE,134,17.0,19.0,89,0.00,,,0.00,Wunderground v.1.15,2013-03-04 09:17:00,
2013-03-04 03:22:00,25.1,22.3,29.77,SE,132,7.0,13.0,89,0.00,,,0.00,Wunderground v.1.15,2013-03-04 09:22:00,
2013-03-04 03:28:00,25.1,22.3,29.77,SE,126,15.0,15.0,89,0.00,,,0.00,Wunderground v.1.15,2013-03-04 09:28:00,
2013-03-04 03:33:00,25.1,22.3,29.76,SE,136,9.0,14.0,89,0.00,,,0.00,Wunderground v.1.15,2013-03-04 09:33:00,
2013-03-04 03:38:00,25.1,22.3,29.77,SE,128,10.0,17.0,89,0.00,,,0.00,Wunderground v.1.15,2013-03-04 09:38:00,
2013-03-04 03:43:00,25.1,22.3,29.77,ESE,119,13.0,17.0,89,0.00,,,0.00,Wunderground v.1.15,2013-03-04 09:43:00,
2013-03-04 03:48:00,25.1,22.3,29.77,SE,137,16.0,17.0,89,0.00,,,0.00,Wunderground v.1.15,2013-03-04 09:48:00,
2013-03-04 03:53:00,25.1,22.3,29.77,SE,125,8.0,18.0,89,0.00,,,0.00,Wunderground v.1.15,2013-03-04 09:53:00,
2013-03-04 03:58:00,25.1,22.3,29.76,SE,125,11.0,18.0,89,0.00,,,0.00,Wunderground v.1.15,2013-03-04 09:58:00,
2013-03-04 04:03:00,25.1,22.3,29.76,SE,134,14.0,16.0,89,0.00,,,0.00,Wunderground v.1.15,2013-03-04 10:03:00,
2013-03-04 04:08:00,25.2,22.4,29.77,ESE,109,14.0,17.0,89,0.00,,,0.00,Wunderground v.1.15,2013-03-04 10:08:00,
2013-03-04 04:13:00,25.1,22.3,29.77,SE,137,10.0,14.0,89,0.00,,,0.00,Wunderground v.1.15,2013-03-04 10:13:00,
2013-03-04 04:18:00,25.0,22.2,29.77,SE,138,11.0,15.0,89,0.00,,,0.00,Wunderground v.1.15,2013-03-04 10:18:00,
2013-03-04 04:23:00,24.9,22.1,29.77,ESE,115,7.0,16.0,89,0.00,,,0.00,Wunderground v.1.15,2013-03-04 10:23:00,
2013-03-04 04:28:00,25.0,22.2,29.78,SE,129,12.0,16.0,89,0.00,,,0.00,Wunderground v.1.15,2013-03-04 10:28:00,
2013-03-04 04:33:00,25.0,22.2,29.78,SE,140,14.0,15.0,89,0.00,,,0.00,Wunderground v.1.15,2013-03-04 10:33:00,
2013-03-04 04:38:00,25.0,22.2,29.78,SE,138,7.0,18.0,89,0.00,,,0.00,Wunderground v.1.15,2013-03-04 10:38:00,
2013-03-04 04:43:00,25.0,22.2,29.78,SE,131,15.0,15.0,89,0.00,,,0.00,Wunderground v.1.15,2013-03-04 10:43:00,
2013-03-04 04:48:00,25.1,22.3,29.79,SE,124,8.0,15.0,89,0.00,,,0.00,Wunderground v.1.15,2013-03-04 10:48:00,
2013-03-04 04:53:00,25.1,22.3,29.79,SE,136,9.0,14.0,89,0.00,,,0.00,Wunderground v.1.15,2013-03-04 10:53:00,
2013-03-04 04:58:00,25.1,22.3,29.79,SE,134,9.0,16.0,89,0.00,,,0.00,Wunderground v.1.15,2013-03-04 10:58:00,
2013-03-04 05:03:00,25.2,22.4,29.79,ESE,123,4.0,15.0,89,0.00,,,0.00,Wunderground v.1.15,2013-03-04 11:03:00,
2013-03-04 05:08:00,25.2,22.4,29.79,ESE,122,5.0,15.0,89,0.00,,,0.00,Wunderground v.1.15,2013-03-04 11:08:00,
2013-03-04 05:13:00,25.1,22.3,29.79,ESE,123,9.0,14.0,89,0.00,,,0.00,Wunderground v.1.15,2013-03-04 11:13:00,
2013-03-04 05:18:00,25.1,22.3,29.79,ESE,121,7.0,15.0,89,0.00,,,0.00,Wunderground v.1.15,2013-03-04 11:18:00,
2013-03-04 05:23:00,25.1,22.3,29.79,SE,133,13.0,14.0,89,0.00,,,0.00,Wunderground v.1.15,2013-03-04 11:23:00,
2013-03-04 05:28:00,25.1,22.3,29.79,SE,131,12.0,15.0,89,0.00,,,0.00,Wunderground v.1.15,2013-03-04 11:28:00,
2013-03-04 05:33:00,25.1,22.3,29.79,SE,130,8.0,12.0,89,0.00,,,0.00,Wunderground v.1.15,2013-03-04 11:33:00,
2013-03-04 05:38:00,25.1,22.3,29.79,SE,130,15.0,16.0,89,0.00,,,0.00,Wunderground v.1.15,2013-03-04 11:38:00,
2013-03-04 05:43:00,25.1,22.3,29.79,ESE,102,11.0,15.0,89,0.00,,,0.00,Wunderground v.1.15,2013-03-04 11:43:00,
2013-03-04 05:48:00,25.2,22.4,29.79,SSE,152,9.0,15.0,89,0.00,,,0.00,Wunderground v.1.15,2013-03-04 11:48:00,
2013-03-04 05:53:00,25.2,22.4,29.80,ESE,121,9.0,14.0,89,0.00,,,0.00,Wunderground v.1.15,2013-03-04 11:53:00,
2013-03-04 05:59:00,25.2,22.4,29.80,SE,126,12.0,15.0,89,0.00,,,0.00,Wunderground v.1.15,2013-03-04 11:59:00,
2013-03-04 06:04:00,25.2,22.4,29.80,SE,128,6.0,13.0,89,0.00,,,0.00,Wunderground v.1.15,2013-03-04 12:04:00,
2013-03-04 06:09:00,25.3,22.5,29.80,SE,129,10.0,13.0,89,0.00,,,0.00,Wunderground v.1.15,2013-03-04 12:09:00,
2013-03-04 06:14:00,25.3,22.5,29.81,SE,137,6.0,10.0,89,0.00,,,0.00,Wunderground v.1.15,2013-03-04 12:14:00,
2013-03-04 06:19:00,25.3,22.5,29.81,SE,134,8.0,10.0,89,0.00,,,0.00,Wunderground v.1.15,2013-03-04 12:19:00,
2013-03-04 06:24:00,25.4,22.6,29.81,SE,144,13.0,13.0,89,0.00,,,0.00,Wunderground v.1.15,2013-03-04 12:24:00,
2013-03-04 06:29:00,25.4,22.6,29.81,SE,144,10.0,15.0,89,0.00,,,0.00,Wunderground v.1.15,2013-03-04 12:29:00,
2013-03-04 06:34:00,25.4,22.6,29.81,SSE,150,8.0,16.0,89,0.00,,,0.00,Wunderground v.1.15,2013-03-04 12:34:00,
2013-03-04 06:39:00,25.4,22.6,29.80,SE,129,8.0,16.0,89,0.00,,,0.00,Wunderground v.1.15,2013-03-04 12:39:00,
2013-03-04 06:44:00,25.4,22.6,29.80,SE,125,7.0,14.0,89,0.00,,,0.00,Wunderground v.1.15,2013-03-04 12:44:00,
2013-03-04 06:49:00,25.4,22.6,29.81,SE,130,8.0,14.0,89,0.00,,,0.00,Wunderground v.1.15,2013-03-04 12:49:00,
2013-03-04 06:54:00,25.4,22.9,29.81,SE,127,7.0,11.0,90,0.00,,,0.00,Wunderground v.1.15,2013-03-04 12:54:00,
2013-03-04 06:59:00,25.3,22.8,29.81,SE,132,6.0,12.0,90,0.00,,,0.00,Wunderground v.1.15,2013-03-04 12:59:00,
2013-03-04 07:04:00,25.3,22.8,29.81,SE,126,10.0,13.0,90,0.00,,,0.00,Wunderground v.1.15,2013-03-04 13:04:00,
2013-03-04 07:09:00,25.3,22.8,29.81,ESE,113,11.0,14.0,90,0.00,,,0.00,Wunderground v.1.15,2013-03-04 13:09:00,
2013-03-04 07:14:00,25.4,22.9,29.81,SE,124,6.0,15.0,90,0.00,,,0.00,Wunderground v.1.15,2013-03-04 13:14:00,
2013-03-04 07:19:00,25.3,22.8,29.81,ESE,121,10.0,15.0,90,0.00,,,0.00,Wunderground v.1.15,2013-03-04 13:19:00,
2013-03-04 07:24:00,25.3,22.8,29.81,SE,124,8.0,12.0,90,0.00,,,0.00,Wunderground v.1.15,2013-03-04 13:24:00,
2013-03-04 07:29:00,25.4,22.9,29.81,ESE,121,8.0,13.0,90,0.00,,,0.00,Wunderground v.1.15,2013-03-04 13:29:00,
2013-03-04 07:34:00,25.4,22.9,29.81,SE,130,3.0,10.0,90,0.00,,,0.00,Wunderground v.1.15,2013-03-04 13:34:00,
2013-03-04 07:39:00,25.4,22.9,29.81,SE,126,12.0,12.0,90,0.00,,,0.00,Wunderground v.1.15,2013-03-04 13:39:00,
2013-03-04 07:45:00,25.4,22.9,29.81,SE,130,13.0,13.0,90,0.00,,,0.00,Wunderground v.1.15,2013-03-04 13:45:00,
2013-03-04 07:50:00,25.4,22.9,29.81,ESE,123,13.0,13.0,90,0.00,,,0.00,Wunderground v.1.15,2013-03-04 13:50:00,
2013-03-04 07:55:00,25.4,22.9,29.81,ESE,123,13.0,16.0,90,0.00,,,0.00,Wunderground v.1.15,2013-03-04 13:55:00,
2013-03-04 08:00:00,25.4,22.9,29.81,SE,130,9.0,10.0,90,0.00,,,0.00,Wunderground v.1.15,2013-03-04 14:00:00,
2013-03-04 08:05:00,25.4,22.9,29.81,SE,133,10.0,13.0,90,0.00,,,0.00,Wunderground v.1.15,2013-03-04 14:05:00,
2013-03-04 08:10:00,25.5,23.0,29.81,SE,124,11.0,11.0,90,0.00,,,0.00,Wunderground v.1.15,2013-03-04 14:10:00,
2013-03-04 08:15:00,25.5,23.0,29.81,SE,128,9.0,16.0,90,0.00,,,0.00,Wunderground v.1.15,2013-03-04 14:15:00,
2013-03-04 08:20:00,25.6,23.1,29.81,SE,129,10.0,10.0,90,0.00,,,0.00,Wunderground v.1.15,2013-03-04 14:20:00,
2013-03-04 08:25:00,25.6,23.1,29.81,SE,142,7.0,12.0,90,0.00,,,0.00,Wunderground v.1.15,2013-03-04 14:25:00,
2013-03-04 08:30:00,25.7,23.2,29.81,SE,125,7.0,9.0,90,0.00,,,0.00,Wunderground v.1.15,2013-03-04 14:30:00,
2013-03-04 08:35:00,25.7,23.2,29.81,SE,124,10.0,14.0,90,0.00,,,0.00,Wunderground v.1.15,2013-03-04 14:35:00,
2013-03-04 08:40:00,25.7,23.2,29.82,SE,126,12.0,12.0,90,0.00,,,0.00,Wunderground v.1.15,2013-03-04 14:40:00,
2013-03-04 08:45:00,25.8,23.3,29.82,SE,133,11.0,12.0,90,0.00,,,0.00,Wunderground v.1.15,2013-03-04 14:45:00,
2013-03-04 08:50:00,25.7,23.2,29.82,SE,142,6.0,9.0,90,0.00,,,0.00,Wunderground v.1.15,2013-03-04 14:50:00,
2013-03-04 08:55:00,25.8,23.3,29.82,SE,136,5.0,13.0,90,0.00,,,0.00,Wunderground v.1.15,2013-03-04 14:55:00,
2013-03-04 09:00:00,25.9,23.6,29.82,SE,128,11.0,12.0,91,0.00,,,0.00,Wunderground v.1.15,2013-03-04 15:00:00,
2013-03-04 09:05:00,25.9,23.4,29.82,SE,130,7.0,15.0,90,0.00,,,0.00,Wunderground v.1.15,2013-03-04 15:05:00,
2013-03-04 09:10:00,26.0,23.7,29.83,SE,136,8.0,8.0,91,0.00,,,0.00,Wunderground v.1.15,2013-03-04 15:10:00,
2013-03-04 09:16:00,26.1,23.6,29.83,SE,129,8.0,14.0,90,0.00,,,0.00,Wunderground v.1.15,2013-03-04 15:16:00,
2013-03-04 09:21:00,26.0,23.5,29.82,SE,128,12.0,12.0,90,0.00,,,0.00,Wunderground v.1.15,2013-03-04 15:21:00,
2013-03-04 09:26:00,26.1,23.6,29.82,SE,137,8.0,12.0,90,0.00,,,0.00,Wunderground v.1.15,2013-03-04 15:26:00,
2013-03-04 09:31:00,26.2,23.7,29.83,SE,137,6.0,9.0,90,0.00,,,0.00,Wunderground v.1.15,2013-03-04 15:31:00,
2013-03-04 09:37:00,26.3,23.8,29.83,SE,136,6.0,11.0,90,0.00,,,0.00,Wunderground v.1.15,2013-03-04 15:37:00,
2013-03-04 09:42:00,26.4,24.1,29.83,SE,134,10.0,10.0,91,0.00,,,0.00,Wunderground v.1.15,2013-03-04 15:42:00,
2013-03-04 09:47:00,26.5,24.2,29.83,SE,137,9.0,13.0,91,0.00,,,0.00,Wunderground v.1.15,2013-03-04 15:47:00,
2013-03-04 09:52:00,26.5,24.2,29.83,SE,134,5.0,7.0,91,0.00,,,0.00,Wunderground v.1.15,2013-03-04 15:52:00,
2013-03-04 09:57:00,26.5,24.2,29.83,ESE,123,8.0,10.0,91,0.00,,,0.00,Wunderground v.1.15,2013-03-04 15:57:00,
2013-03-04 10:02:00,26.6,24.3,29.83,SE,140,7.0,12.0,91,0.00,,,0.00,Wunderground v.1.15,2013-03-04 16:02:00,
2013-03-04 10:07:00,26.7,24.4,29.82,SE,134,7.0,12.0,91,0.00,,,0.00,Wunderground v.1.15,2013-03-04 16:07:00,
2013-03-04 10:12:00,26.6,24.3,29.83,ESE,123,12.0,12.0,91,0.00,,,0.00,Wunderground v.1.15,2013-03-04 16:12:00,
2013-03-04 10:17:00,26.5,24.2,29.83,SE,137,8.0,13.0,91,0.00,,,0.00,Wunderground v.1.15,2013-03-04 16:17:00,
2013-03-04 10:22:00,26.6,24.3,29.82,SE,136,9.0,10.0,91,0.00,,,0.00,Wunderground v.1.15,2013-03-04 16:22:00,
2013-03-04 10:27:00,26.7,24.4,29.83,SE,132,7.0,10.0,91,0.00,,,0.00,Wunderground v.1.15,2013-03-04 16:27:00,
2013-03-04 10:32:00,26.6,24.3,29.83,SE,126,4.0,9.0,91,0.00,,,0.00,Wunderground v.1.15,2013-03-04 16:32:00,
2013-03-04 10:37:00,26.4,24.1,29.83,SE,128,7.0,10.0,91,0.00,,,0.00,Wunderground v.1.15,2013-03-04 16:37:00,
2013-03-04 10:42:00,26.3,24.0,29.83,ESE,121,10.0,10.0,91,0.00,,,0.00,Wunderground v.1.15,2013-03-04 16:42:00,
2013-03-04 10:47:00,26.2,23.9,29.83,SE,132,6.0,10.0,91,0.00,,,0.00,Wunderground v.1.15,2013-03-04 16:47:00,
2013-03-04 10:52:00,26.3,24.0,29.83,SE,125,7.0,8.0,91,0.00,,,0.00,Wunderground v.1.15,2013-03-04 16:52:00,
2013-03-04 10:57:00,26.4,24.1,29.83,SE,136,6.0,9.0,91,0.00,,,0.00,Wunderground v.1.15,2013-03-04 16:57:00,
2013-03-04 11:02:00,26.6,24.3,29.84,SE,133,3.0,10.0,91,0.00,,,0.00,Wunderground v.1.15,2013-03-04 17:02:00,
2013-03-04 11:08:00,26.6,24.3,29.84,SE,130,10.0,10.0,91,0.00,,,0.00,Wunderground v.1.15,2013-03-04 17:08:00,
2013-03-04 11:13:00,26.4,24.1,29.84,SE,134,4.0,11.0,91,0.00,,,0.00,Wunderground v.1.15,2013-03-04 17:13:00,
2013-03-04 11:18:00,26.6,24.3,29.84,SE,146,10.0,11.0,91,0.00,,,0.00,Wunderground v.1.15,2013-03-04 17:18:00,
2013-03-04 11:23:00,26.8,24.5,29.84,SE,129,6.0,10.0,91,0.00,,,0.00,Wunderground v.1.15,2013-03-04 17:23:00,
2013-03-04 11:28:00,26.8,24.5,29.84,SE,142,5.0,10.0,91,0.00,,,0.00,Wunderground v.1.15,2013-03-04 17:28:00,
2013-03-04 11:33:00,26.8,24.5,29.84,SE,131,5.0,9.0,91,0.00,,,0.00,Wunderground v.1.15,2013-03-04 17:33:00,
2013-03-04 11:38:00,26.8,24.5,29.84,SE,145,2.0,11.0,91,0.00,,,0.00,Wunderground v.1.15,2013-03-04 17:38:00,
2013-03-04 11:43:00,26.8,24.5,29.84,SE,140,6.0,11.0,91,0.00,,,0.00,Wunderground v.1.15,2013-03-04 17:43:00,
2013-03-04 11:48:00,26.9,24.6,29.84,SE,133,7.0,11.0,91,0.00,,,0.00,Wunderground v.1.15,2013-03-04 17:48:00,
2013-03-04 11:53:00,26.9,24.6,29.84,ESE,123,5.0,10.0,91,0.00,,,0.00,Wunderground v.1.15,2013-03-04 17:53:00,
2013-03-04 11:58:00,26.8,24.5,29.84,ESE,123,7.0,10.0,91,0.00,,,0.00,Wunderground v.1.15,2013-03-04 17:58:00,
2013-03-04 12:03:00,26.7,24.7,29.84,ESE,122,4.0,9.0,92,0.00,,,0.00,Wunderground v.1.15,2013-03-04 18:03:00,
2013-03-04 12:08:00,26.6,24.6,29.84,ESE,121,5.0,9.0,92,0.00,,,0.00,Wunderground v.1.15,2013-03-04 18:08:00,
2013-03-04 12:13:00,26.7,24.7,29.84,SE,132,6.0,7.0,92,0.00,,,0.00,Wunderground v.1.15,2013-03-04 18:13:00,
2013-03-04 12:18:00,26.8,24.8,29.84,ESE,122,5.0,10.0,92,0.00,,,0.00,Wunderground v.1.15,2013-03-04 18:18:00,
2013-03-04 12:23:00,26.8,24.8,29.85,SE,127,4.0,6.0,92,0.00,,,0.00,Wunderground v.1.15,2013-03-04 18:23:00,
2013-03-04 12:28:00,26.7,24.7,29.85,ESE,121,7.0,8.0,92,0.00,,,0.00,Wunderground v.1.15,2013-03-04 18:28:00,
2013-03-04 12:29:00,26.6,24.6,29.85,ESE,114,8.0,8.0,92,0.00,,,0.00,Wunderground v.1.15,2013-03-04 18:29:00,
2013-03-04 12:34:00,26.5,24.5,29.85,ESE,113,5.0,7.0,92,0.00,,,0.00,Wunderground v.1.15,2013-03-04 18:34:00,
2013-03-04 12:39:00,26.5,24.5,29.85,ESE,117,5.0,5.0,92,0.00,,,0.00,Wunderground v.1.15,2013-03-04 18:39:00,
2013-03-04 12:44:00,26.5,24.5,29.84,ESE,119,3.0,9.0,92,0.00,,,0.00,Wunderground v.1.15,2013-03-04 18:44:00,
2013-03-04 12:49:00,26.5,24.5,29.85,ESE,117,7.0,7.0,92,0.00,,,0.00,Wunderground v.1.15,2013-03-04 18:49:00,
2013-03-04 12:55:00,26.6,24.6,29.85,ESE,117,5.0,8.0,92,0.00,,,0.00,Wunderground v.1.15,2013-03-04 18:55:00,
2013-03-04 12:59:00,26.5,24.5,29.85,ESE,122,4.0,5.0,92,0.00,,,0.00,Wunderground v.1.15,2013-03-04 18:59:00,
2013-03-04 13:04:00,26.6,24.6,29.85,ESE,122,5.0,8.0,92,0.00,,,0.00,Wunderground v.1.15,2013-03-04 19:04:00,
2013-03-04 13:09:00,26.7,24.7,29.85,ESE,122,8.0,8.0,92,0.00,,,0.00,Wunderground v.1.15,2013-03-04 19:09:00,
2013-03-04 13:14:00,26.8,24.8,29.86,ESE,122,3.0,8.0,92,0.00,,,0.00,Wunderground v.1.15,2013-03-04 19:14:00,
2013-03-04 13:20:00,26.9,24.9,29.86,ESE,121,4.0,8.0,92,0.00,,,0.00,Wunderground v.1.15,2013-03-04 19:20:00,
2013-03-04 13:25:00,26.9,24.9,29.85,ESE,121,8.0,8.0,92,0.00,,,0.00,Wunderground v.1.15,2013-03-04 19:25:00,
2013-03-04 13:30:00,27.0,25.0,29.85,ESE,122,4.0,4.0,92,0.00,,,0.00,Wunderground v.1.15,2013-03-04 19:30:00,
2013-03-04 13:36:00,27.1,25.1,29.85,ESE,122,5.0,8.0,92,0.00,,,0.00,Wunderground v.1.15,2013-03-04 19:36:00,
2013-03-04 13:42:00,27.2,25.2,29.85,ESE,122,4.0,5.0,92,0.00,,,0.00,Wunderground v.1.15,2013-03-04 19:42:00,
2013-03-04 13:47:00,27.1,25.1,29.85,ESE,122,2.0,5.0,92,0.00,,,0.00,Wunderground v.1.15,2013-03-04 19:47:00,
2013-03-04 13:52:00,27.2,25.2,29.85,ESE,122,3.0,4.0,92,0.00,,,0.00,Wunderground v.1.15,2013-03-04 19:52:00,
2013-03-04 13:57:00,27.0,25.0,29.85,ESE,121,5.0,8.0,92,0.00,,,0.00,Wunderground v.1.15,2013-03-04 19:57:00,
2013-03-04 14:02:00,27.1,25.1,29.85,ESE,121,7.0,7.0,92,0.00,,,0.00,Wunderground v.1.15,2013-03-04 20:02:00,
2013-03-04 14:07:00,27.1,25.1,29.86,ESE,121,2.0,7.0,92,0.00,,,0.00,Wunderground v.1.15,2013-03-04 20:07:00,
2013-03-04 14:12:00,27.2,25.2,29.86,ESE,121,3.0,4.0,92,0.00,,,0.00,Wunderground v.1.15,2013-03-04 20:12:00,
2013-03-04 14:17:00,27.2,25.2,29.86,ESE,121,2.0,5.0,92,0.00,,,0.00,Wunderground v.1.15,2013-03-04 20:17:00,
2013-03-04 14:22:00,27.3,25.3,29.85,ESE,121,2.0,4.0,92,0.00,,,0.00,Wunderground v.1.15,2013-03-04 20:22:00,
2013-03-04 14:28:00,27.3,25.3,29.86,ESE,121,3.0,5.0,92,0.00,,,0.00,Wunderground v.1.15,2013-03-04 20:28:00,
2013-03-04 14:33:00,27.2,25.2,29.86,ESE,121,5.0,7.0,92,0.00,,,0.00,Wunderground v.1.15,2013-03-04 20:33:00,
2013-03-04 14:38:00,27.2,25.2,29.86,ESE,121,4.0,7.0,92,0.00,,,0.00,Wunderground v.1.15,2013-03-04 20:38:00,
2013-03-04 14:43:00,27.3,25.3,29.86,ESE,121,4.0,8.0,92,0.00,,,0.00,Wunderground v.1.15,2013-03-04 20:43:00,
2013-03-04 14:48:00,27.3,25.3,29.85,ESE,121,3.0,8.0,92,0.00,,,0.00,Wunderground v.1.15,2013-03-04 20:48:00,
2013-03-04 14:53:00,27.3,25.3,29.86,ESE,119,5.0,7.0,92,0.00,,,0.00,Wunderground v.1.15,2013-03-04 20:53:00,
2013-03-04 14:58:00,27.2,25.2,29.86,ESE,118,7.0,7.0,92,0.00,,,0.00,Wunderground v.1.15,2013-03-04 20:58:00,
2013-03-04 15:03:00,27.2,25.2,29.86,ESE,118,4.0,5.0,92,0.00,,,0.00,Wunderground v.1.15,2013-03-04 21:03:00,
2013-03-04 15:08:00,27.3,25.3,29.85,ESE,114,2.0,7.0,92,0.00,,,0.00,Wunderground v.1.15,2013-03-04 21:08:00,
2013-03-04 15:13:00,27.4,25.4,29.86,ESE,114,3.0,5.0,92,0.00,,,0.00,Wunderground v.1.15,2013-03-04 21:13:00,
2013-03-04 15:18:00,27.2,25.2,29.85,ESE,113,5.0,8.0,92,0.00,,,0.00,Wunderground v.1.15,2013-03-04 21:18:00,
2013-03-04 15:23:00,27.2,25.2,29.86,ESE,113,4.0,7.0,92,0.00,,,0.00,Wunderground v.1.15,2013-03-04 21:23:00,
2013-03-04 15:28:00,27.1,25.1,29.86,ESE,113,5.0,7.0,92,0.00,,,0.00,Wunderground v.1.15,2013-03-04 21:28:00,
2013-03-04 15:33:00,27.0,25.0,29.86,ESE,113,2.0,5.0,92,0.00,,,0.00,Wunderground v.1.15,2013-03-04 21:33:00,
2013-03-04 15:38:00,27.0,25.0,29.86,ESE,113,3.0,7.0,92,0.00,,,0.00,Wunderground v.1.15,2013-03-04 21:38:00,
2013-03-04 15:43:00,27.0,25.0,29.86,ESE,113,4.0,7.0,92,0.00,,,0.00,Wunderground v.1.15,2013-03-04 21:43:00,
2013-03-04 15:48:00,26.9,24.9,29.87,ESE,113,4.0,7.0,92,0.00,,,0.00,Wunderground v.1.15,2013-03-04 21:48:00,
2013-03-04 15:53:00,26.9,24.9,29.86,ESE,113,5.0,8.0,92,0.00,,,0.00,Wunderground v.1.15,2013-03-04 21:53:00,
2013-03-04 15:58:00,26.9,24.9,29.86,ESE,113,3.0,8.0,92,0.00,,,0.00,Wunderground v.1.15,2013-03-04 21:58:00,
2013-03-04 16:03:00,26.8,24.8,29.87,ESE,111,4.0,8.0,92,0.00,,,0.00,Wunderground v.1.15,2013-03-04 22:03:00,
2013-03-04 16:08:00,26.8,24.8,29.87,ESE,110,4.0,8.0,92,0.00,,,0.00,Wunderground v.1.15,2013-03-04 22:08:00,
2013-03-04 16:13:00,26.8,24.8,29.86,ESE,109,7.0,9.0,92,0.00,,,0.00,Wunderground v.1.15,2013-03-04 22:13:00,
2013-03-04 16:18:00,26.8,24.8,29.86,ESE,108,4.0,9.0,92,0.00,,,0.00,Wunderground v.1.15,2013-03-04 22:18:00,
2013-03-04 16:23:00,26.8,24.8,29.86,ESE,107,7.0,8.0,92,0.00,,,0.00,Wunderground v.1.15,2013-03-04 22:23:00,
2013-03-04 16:28:00,26.8,24.8,29.86,ESE,107,9.0,9.0,92,0.00,,,0.00,Wunderground v.1.15,2013-03-04 22:28:00,
2013-03-04 16:33:00,26.7,24.7,29.86,ESE,105,5.0,9.0,92,0.00,,,0.00,Wunderground v.1.15,2013-03-04 22:33:00,
2013-03-04 16:38:00,26.8,24.8,29.86,ESE,105,4.0,9.0,92,0.00,,,0.00,Wunderground v.1.15,2013-03-04 22:38:00,
2013-03-04 16:43:00,26.8,24.8,29.86,ESE,105,5.0,9.0,92,0.00,,,0.00,Wunderground v.1.15,2013-03-04 22:43:00,
2013-03-04 16:48:00,26.7,24.7,29.86,ESE,107,9.0,10.0,92,0.00,,,0.00,Wunderground v.1.15,2013-03-04 22:48:00,
2013-03-04 16:54:00,26.7,24.7,29.87,ESE,106,3.0,9.0,92,0.00,,,0.00,Wunderground v.1.15,2013-03-04 22:54:00,
2013-03-04 16:59:00,26.7,24.9,29.87,ESE,103,7.0,9.0,93,0.00,,,0.00,Wunderground v.1.15,2013-03-04 22:59:00,
2013-03-04 17:04:00,26.7,24.9,29.87,ESE,104,7.0,7.0,93,0.00,,,0.00,Wunderground v.1.15,2013-03-04 23:04:00,
2013-03-04 17:09:00,26.7,24.9,29.87,ESE,104,4.0,8.0,93,0.00,,,0.00,Wunderground v.1.15,2013-03-04 23:09:00,
2013-03-04 17:14:00,26.7,24.9,29.88,ESE,104,4.0,8.0,93,0.00,,,0.00,Wunderground v.1.15,2013-03-04 23:14:00,
2013-03-04 17:19:00,26.6,24.8,29.88,ESE,103,7.0,8.0,93,0.00,,,0.00,Wunderground v.1.15,2013-03-04 23:19:00,
2013-03-04 17:24:00,26.6,24.8,29.88,ESE,103,7.0,8.0,93,0.00,,,0.00,Wunderground v.1.15,2013-03-04 23:24:00,
2013-03-04 17:29:00,26.6,24.8,29.89,ESE,104,8.0,9.0,93,0.00,,,0.00,Wunderground v.1.15,2013-03-04 23:29:00,
2013-03-04 17:34:00,26.6,24.8,29.90,ESE,104,5.0,8.0,93,0.00,,,0.00,Wunderground v.1.15,2013-03-04 23:34:00,
2013-03-04 17:39:00,26.6,24.8,29.90,ESE,104,3.0,8.0,93,0.00,,,0.00,Wunderground v.1.15,2013-03-04 23:39:00,
2013-03-04 17:44:00,26.6,24.8,29.90,ESE,104,3.0,4.0,93,0.00,,,0.00,Wunderground v.1.15,2013-03-04 23:44:00,
2013-03-04 17:49:00,26.7,24.9,29.91,ESE,104,3.0,4.0,93,0.00,,,0.00,Wunderground v.1.15,2013-03-04 23:49:00,
2013-03-04 17:54:00,26.7,24.9,29.91,ESE,103,0.0,3.0,93,0.00,,,0.00,Wunderground v.1.15,2013-03-04 23:54:00,
2013-03-04 17:59:00,26.7,24.9,29.93,ESE,104,2.0,3.0,93,0.00,,,0.00,Wunderground v.1.15,2013-03-04 23:59:00,
2013-03-04 18:04:00,26.7,24.9,29.93,ESE,104,1.0,3.0,93,0.00,,,0.00,Wunderground v.1.15,2013-03-05 00:04:00,
2013-03-04 18:09:00,26.7,24.9,29.94,ESE,104,0.0,3.0,93,0.00,,,0.00,Wunderground v.1.15,2013-03-05 00:09:00,
2013-03-04 18:14:00,26.7,24.9,29.94,ESE,104,0.0,2.0,93,0.00,,,0.00,Wunderground v.1.15,2013-03-05 00:14:00,
2013-03-04 18:19:00,26.8,25.0,29.95,ESE,103,0.0,2.0,93,0.00,,,0.00,Wunderground v.1.15,2013-03-05 00:19:00,
2013-03-04 18:24:00,26.8,25.0,29.96,ESE,104,1.0,2.0,93,0.00,,,0.00,Wunderground v.1.15,2013-03-05 00:24:00,
2013-03-04 18:29:00,26.9,25.1,29.96,ESE,104,1.0,3.0,93,0.00,,,0.00,Wunderground v.1.15,2013-03-05 00:29:00,
2013-03-04 18:34:00,27.0,25.2,29.96,ESE,103,0.0,2.0,93,0.00,,,0.00,Wunderground v.1.15,2013-03-05 00:34:00,
2013-03-04 18:39:00,27.1,25.3,29.94,ESE,103,0.0,2.0,93,0.00,,,0.00,Wunderground v.1.15,2013-03-05 00:39:00,
2013-03-04 18:44:00,27.2,25.4,29.95,ESE,103,1.0,2.0,93,0.00,,,0.00,Wunderground v.1.15,2013-03-05 00:44:00,
2013-03-04 18:49:00,27.2,25.4,29.94,ESE,103,0.0,3.0,93,0.00,,,0.00,Wunderground v.1.15,2013-03-05 00:49:00,
2013-03-04 18:54:00,27.2,25.4,29.94,ESE,103,0.0,1.0,93,0.00,,,0.00,Wunderground v.1.15,2013-03-05 00:54:00,
2013-03-04 18:59:00,27.2,25.4,29.94,ESE,104,0.0,1.0,93,0.00,,,0.00,Wunderground v.1.15,2013-03-05 00:59:00,
2013-03-04 19:04:00,27.2,25.4,29.94,ESE,104,1.0,2.0,93,0.00,,,0.00,Wunderground v.1.15,2013-03-05 01:04:00,
2013-03-04 19:09:00,27.2,25.4,29.95,ESE,103,0.0,2.0,93,0.00,,,0.00,Wunderground v.1.15,2013-03-05 01:09:00,
2013-03-04 19:14:00,27.2,25.4,29.96,ESE,104,0.0,0.0,93,0.00,,,0.00,Wunderground v.1.15,2013-03-05 01:14:00,
2013-03-04 19:19:00,27.2,25.4,29.96,ESE,104,0.0,0.0,93,0.00,,,0.00,Wunderground v.1.15,2013-03-05 01:19:00,
2013-03-04 19:24:00,27.2,25.4,29.96,ESE,104,0.0,0.0,93,0.00,,,0.00,Wunderground v.1.15,2013-03-05 01:24:00,
2013-03-04 19:29:00,27.2,25.4,29.97,ESE,103,0.0,0.0,93,0.00,,,0.00,Wunderground v.1.15,2013-03-05 01:29:00,
2013-03-04 19:34:00,27.2,25.4,29.97,ESE,103,0.0,0.0,93,0.00,,,0.00,Wunderground v.1.15,2013-03-05 01:34:00,
2013-03-04 19:40:00,27.2,25.4,29.97,ESE,104,0.0,0.0,93,0.00,,,0.00,Wunderground v.1.15,2013-03-05 01:40:00,
2013-03-04 19:45:00,27.2,25.4,29.97,ESE,103,0.0,0.0,93,0.00,,,0.00,Wunderground v.1.15,2013-03-05 01:45:00,
2013-03-04 19:50:00,27.2,25.4,29.97,ESE,103,0.0,0.0,93,0.00,,,0.00,Wunderground v.1.15,2013-03-05 01:50:00,
2013-03-04 19:55:00,27.2,25.4,29.97,ESE,104,0.0,2.0,93,0.00,,,0.00,Wunderground v.1.15,2013-03-05 01:55:00,
2013-03-04 20:00:00,27.2,25.4,29.97,ESE,103,0.0,0.0,93,0.00,,,0.00,Wunderground v.1.15,2013-03-05 02:00:00,
2013-03-04 20:07:00,27.2,25.4,29.97,ESE,104,0.0,0.0,93,0.00,,,0.00,Wunderground v.1.15,2013-03-05 02:07:00,
2013-03-04 20:12:00,27.2,25.4,29.98,ESE,104,0.0,0.0,93,0.00,,,0.00,Wunderground v.1.15,2013-03-05 02:12:00,
2013-03-04 20:17:00,27.2,25.4,29.97,ESE,104,0.0,0.0,93,0.00,,,0.00,Wunderground v.1.15,2013-03-05 02:17:00,
2013-03-04 20:22:00,27.2,25.4,29.99,ESE,104,2.0,2.0,93,0.00,,,0.00,Wunderground v.1.15,2013-03-05 02:22:00,
2013-03-04 20:27:00,27.3,25.5,29.99,ESE,103,0.0,3.0,93,0.00,,,0.00,Wunderground v.1.15,2013-03-05 02:27:00,
2013-03-04 20:32:00,27.3,25.5,29.99,ESE,103,0.0,1.0,93,0.00,,,0.00,Wunderground v.1.15,2013-03-05 02:32:00,
2013-03-04 20:37:00,27.4,25.6,29.98,ESE,104,0.0,1.0,93,0.00,,,0.00,Wunderground v.1.15,2013-03-05 02:37:00,
2013-03-04 20:42:00,27.4,25.6,29.98,ESE,104,1.0,1.0,93,0.00,,,0.00,Wunderground v.1.15,2013-03-05 02:42:00,
2013-03-04 20:47:00,27.4,25.6,29.98,ESE,104,2.0,2.0,93,0.00,,,0.00,Wunderground v.1.15,2013-03-05 02:47:00,
2013-03-04 20:52:00,27.4,25.6,29.99,ESE,103,2.0,2.0,93,0.00,,,0.00,Wunderground v.1.15,2013-03-05 02:52:00,
2013-03-04 20:57:00,27.4,25.6,29.99,ESE,103,1.0,3.0,93,0.00,,,0.00,Wunderground v.1.15,2013-03-05 02:57:00,
2013-03-04 21:03:00,27.4,25.6,29.99,ESE,104,3.0,3.0,93,0.00,,,0.00,Wunderground v.1.15,2013-03-05 03:03:00,
2013-03-04 21:09:00,27.5,25.7,29.99,ESE,104,2.0,4.0,93,0.00,,,0.00,Wunderground v.1.15,2013-03-05 03:09:00,
2013-03-04 21:14:00,27.5,25.7,29.98,ESE,103,2.0,4.0,93,0.00,,,0.00,Wunderground v.1.15,2013-03-05 03:14:00,
2013-03-04 21:19:00,27.5,25.7,29.98,ESE,104,3.0,4.0,93,0.00,,,0.00,Wunderground v.1.15,2013-03-05 03:19:00,
2013-03-04 21:24:00,27.5,25.7,29.98,ESE,103,0.0,4.0,93,0.00,,,0.00,Wunderground v.1.15,2013-03-05 03:24:00,
2013-03-04 21:29:00,27.5,25.7,29.98,ESE,103,2.0,4.0,93,0.00,,,0.00,Wunderground v.1.15,2013-03-05 03:29:00,
2013-03-04 21:34:00,27.5,25.7,29.98,ESE,104,1.0,4.0,93,0.00,,,0.00,Wunderground v.1.15,2013-03-05 03:34:00,
2013-03-04 21:39:00,27.4,25.6,29.98,ESE,103,3.0,4.0,93,0.00,,,0.00,Wunderground v.1.15,2013-03-05 03:39:00,
2013-03-04 21:44:00,27.3,25.5,29.98,ESE,104,0.0,3.0,93,0.00,,,0.00,Wunderground v.1.15,2013-03-05 03:44:00,
2013-03-04 21:49:00,27.1,25.3,29.98,ESE,104,0.0,3.0,93,0.00,,,0.00,Wunderground v.1.15,2013-03-05 03:49:00,
2013-03-04 21:54:00,27.0,25.2,29.98,ESE,104,0.0,2.0,93,0.00,,,0.00,Wunderground v.1.15,2013-03-05 03:54:00,
2013-03-04 21:59:00,26.9,25.1,29.97,ESE,104,0.0,2.0,93,0.00,,,0.00,Wunderground v.1.15,2013-03-05 03:59:00,
2013-03-04 22:04:00,27.0,25.2,29.97,ESE,104,2.0,3.0,93,0.00,,,0.00,Wunderground v.1.15,2013-03-05 04:04:00,
2013-03-04 22:09:00,27.1,25.3,29.97,ESE,104,2.0,4.0,93,0.00,,,0.00,Wunderground v.1.15,2013-03-05 04:09:00,
2013-03-04 22:14:00,27.2,25.4,29.97,ESE,103,1.0,3.0,93,0.00,,,0.00,Wunderground v.1.15,2013-03-05 04:14:00,
2013-03-04 22:19:00,27.1,25.3,29.97,ESE,104,0.0,3.0,93,0.00,,,0.00,Wunderground v.1.15,2013-03-05 04:19:00,
2013-03-04 22:24:00,27.1,25.3,29.97,ESE,104,3.0,4.0,93,0.00,,,0.00,Wunderground v.1.15,2013-03-05 04:24:00,
2013-03-04 22:29:00,27.0,25.2,29.97,ESE,103,1.0,4.0,93,0.00,,,0.00,Wunderground v.1.15,2013-03-05 04:29:00,
2013-03-04 22:34:00,27.0,25.2,29.97,ESE,104,3.0,3.0,93,0.00,,,0.00,Wunderground v.1.15,2013-03-05 04:34:00,
2013-03-04 22:39:00,27.1,25.3,29.97,ESE,104,1.0,3.0,93,0.00,,,0.00,Wunderground v.1.15,2013-03-05 04:39:00,
2013-03-04 22:44:00,27.2,25.4,29.96,ESE,103,1.0,5.0,93,0.00,,,0.00,Wunderground v.1.15,2013-03-05 04:44:00,
2013-03-04 22:49:00,27.3,25.5,29.96,ESE,104,0.0,5.0,93,0.00,,,0.00,Wunderground v.1.15,2013-03-05 04:49:00,
2013-03-04 22:54:00,27.4,25.6,29.96,ESE,103,0.0,2.0,93,0.00,,,0.00,Wunderground v.1.15,2013-03-05 04:54:00,
2013-03-04 22:59:00,27.4,25.6,29.96,ESE,103,3.0,3.0,93,0.00,,,0.00,Wunderground v.1.15,2013-03-05 04:59:00,
2013-03-04 23:00:00,27.4,25.6,29.96,ESE,104,2.0,2.0,93,0.00,,,0.00,Wunderground v.1.15,2013-03-05 05:00:00,
2013-03-04 23:05:00,27.5,25.7,29.96,ESE,104,2.0,4.0,93,0.00,,,0.00,Wunderground v.1.15,2013-03-05 05:05:00,
2013-03-04 23:10:00,27.6,25.8,29.96,ESE,103,0.0,2.0,93,0.00,,,0.00,Wunderground v.1.15,2013-03-05 05:10:00,
2013-03-04 23:15:00,27.7,25.9,29.96,ESE,104,0.0,4.0,93,0.00,,,0.00,Wunderground v.1.15,2013-03-05 05:15:00,
2013-03-04 23:21:00,27.7,25.9,29.96,ESE,104,1.0,1.0,93,0.00,,,0.00,Wunderground v.1.15,2013-03-05 05:21:00,
2013-03-04 23:26:00,27.8,26.0,29.96,ESE,103,0.0,2.0,93,0.00,,,0.00,Wunderground v.1.15,2013-03-05 05:26:00,
2013-03-04 23:32:00,27.8,26.0,29.96,ESE,104,0.0,1.0,93,0.00,,,0.00,Wunderground v.1.15,2013-03-05 05:32:00,
2013-03-04 23:37:00,27.8,26.0,29.96,ESE,104,0.0,1.0,93,0.00,,,0.00,Wunderground v.1.15,2013-03-05 05:37:00,
2013-03-04 23:42:00,27.7,25.9,29.96,ESE,104,0.0,0.0,93,0.00,,,0.00,Wunderground v.1.15,2013-03-05 05:42:00,
2013-03-04 23:47:00,27.7,25.9,29.97,ESE,103,2.0,4.0,93,0.00,,,0.00,Wunderground v.1.15,2013-03-05 05:47:00,
2013-03-04 23:52:00,27.7,25.9,29.97,SSE,148,3.0,5.0,93,0.00,,,0.00,Wunderground v.1.15,2013-03-05 05:52:00,
2013-03-04 23:57:00,27.8,26.0,29.96,SSE,164,4.0,7.0,93,0.00,,,0.00,Wunderground v.1.15,2013-03-05 05:57:00,